createdAt,value
2022-12-18T00:00:42.451Z,99901.44
2022-12-18T00:01:45.342Z,99904.00
2022-12-18T00:02:48.344Z,99898.88
2022-12-18T00:03:52.546Z,99897.16
2022-12-18T00:04:55.636Z,99903.13
2022-12-18T00:05:57.770Z,99898.84
2022-12-18T00:07:01.009Z,99909.06
2022-12-18T00:08:04.433Z,99897.97
2022-12-18T00:09:14.190Z,99903.94
2022-12-18T00:10:19.076Z,99898.00
2022-12-18T00:11:24.032Z,99902.22
2022-12-18T00:12:26.020Z,99899.69
2022-12-18T00:13:29.402Z,99912.41
2022-12-18T00:14:31.267Z,99903.03
2022-12-18T00:15:35.472Z,99911.56
2022-12-18T00:16:37.989Z,99914.09
2022-12-18T00:17:40.928Z,99911.50
2022-12-18T00:18:43.611Z,99908.09
2022-12-18T00:19:46.450Z,99908.97
2022-12-18T00:20:48.353Z,99899.59
2022-12-18T00:21:51.188Z,99909.81
2022-12-18T00:22:53.159Z,99912.38
2022-12-18T00:23:56.354Z,99911.50
2022-12-18T00:24:59.594Z,99908.97
2022-12-18T00:26:02.967Z,99916.59
2022-12-18T00:27:06.387Z,99916.59
2022-12-18T00:28:09.673Z,99920.81
2022-12-18T00:29:14.974Z,99919.13
2022-12-18T00:30:20.108Z,99917.44
2022-12-18T00:31:24.572Z,99921.69
2022-12-18T00:32:29.647Z,99924.28
2022-12-18T00:33:31.544Z,99916.63
2022-12-18T00:34:34.896Z,99913.19
2022-12-18T00:35:36.787Z,99911.50
2022-12-18T00:36:39.646Z,99908.13
2022-12-18T00:37:41.557Z,99914.94
2022-12-18T00:38:44.442Z,99909.81
2022-12-18T00:39:46.262Z,99915.81
2022-12-18T00:40:51.284Z,99917.50
2022-12-18T00:42:11.548Z,99911.56
2022-12-18T00:43:13.381Z,99918.38
2022-12-18T00:44:16.689Z,99918.38
2022-12-18T00:45:19.590Z,99926.03
2022-12-18T00:46:22.384Z,99921.75
2022-12-18T00:47:25.725Z,99930.28
2022-12-18T00:48:27.640Z,99930.28
2022-12-18T00:49:30.656Z,99933.69
2022-12-18T00:50:32.631Z,99929.41
2022-12-18T00:51:37.325Z,99936.25
2022-12-18T00:52:41.825Z,99939.66
2022-12-18T00:53:44.844Z,99941.31
2022-12-18T00:54:46.725Z,99939.63
2022-12-18T00:55:50.875Z,99944.69
2022-12-18T00:56:53.185Z,99943.84
2022-12-18T00:57:56.317Z,99943.84
2022-12-18T00:58:58.263Z,99937.03
2022-12-18T01:00:01.323Z,99954.03
2022-12-18T01:01:05.007Z,99942.13
2022-12-18T01:02:10.589Z,99952.31
2022-12-18T01:03:15.671Z,99954.03
2022-12-18T01:04:20.490Z,99954.88
2022-12-18T01:05:22.402Z,99959.97
2022-12-18T01:06:25.562Z,99961.69
2022-12-18T01:07:27.367Z,99960.84
2022-12-18T01:08:30.264Z,99963.41
2022-12-18T01:09:32.211Z,99960.84
2022-12-18T01:10:35.141Z,99963.41
2022-12-18T01:11:38.403Z,99963.41
2022-12-18T01:12:41.760Z,99972.75
2022-12-18T01:13:43.845Z,99965.97
2022-12-18T01:14:48.059Z,99966.81
2022-12-18T01:15:50.740Z,99973.59
2022-12-18T01:16:53.725Z,99972.75
2022-12-18T01:17:55.653Z,99976.16
2022-12-18T01:19:17.518Z,99971.91
2022-12-18T01:20:19.714Z,99975.28
2022-12-18T01:21:23.079Z,99977.84
2022-12-18T01:22:25.019Z,99973.59
2022-12-18T01:23:30.599Z,99977.00
2022-12-18T01:24:32.540Z,99975.28
2022-12-18T01:27:07.414Z,99978.72
2022-12-18T01:28:10.289Z,99983.84
2022-12-18T01:29:12.159Z,99983.00
2022-12-18T01:30:15.281Z,99982.16
2022-12-18T01:31:19.183Z,99984.72
2022-12-18T01:32:23.277Z,99983.88
2022-12-18T01:33:25.678Z,99983.03
2022-12-18T01:34:28.456Z,99981.31
2022-12-18T01:35:30.291Z,99978.75
2022-12-18T01:36:34.620Z,99983.88
2022-12-18T01:37:36.507Z,99988.13
2022-12-18T01:38:39.410Z,99979.66
2022-12-18T01:39:41.457Z,99976.22
2022-12-18T01:40:44.243Z,99980.50
2022-12-18T01:42:04.955Z,99986.44
2022-12-18T01:43:11.478Z,99974.56
2022-12-18T01:44:52.342Z,99983.94
2022-12-18T01:45:55.308Z,99972.88
2022-12-18T01:46:57.220Z,99978.00
2022-12-18T01:48:01.611Z,99983.13
2022-12-18T01:49:04.108Z,99986.53
2022-12-18T01:50:10.716Z,99981.44
2022-12-18T01:51:13.198Z,99986.53
2022-12-18T01:52:16.375Z,99978.84
2022-12-18T01:53:21.250Z,99987.34
2022-12-18T01:54:24.075Z,99988.22
2022-12-18T01:55:27.966Z,99988.22
2022-12-18T01:56:30.946Z,99985.66
2022-12-18T01:57:33.120Z,99995.88
2022-12-18T01:58:43.868Z,99992.50
2022-12-18T01:59:49.233Z,99994.19
2022-12-18T02:00:52.290Z,99990.78
2022-12-18T02:01:55.489Z,99993.34
2022-12-18T02:02:58.733Z,99998.44
2022-12-18T02:04:20.517Z,99994.19
2022-12-18T02:05:29.100Z,100001.84
2022-12-18T02:06:34.690Z,100003.56
2022-12-18T02:07:45.167Z,100006.94
2022-12-18T02:08:59.134Z,100012.06
2022-12-18T02:10:07.366Z,100003.56
2022-12-18T02:11:13.430Z,100009.50
2022-12-18T02:12:21.136Z,100011.22
2022-12-18T02:13:29.029Z,100003.59
2022-12-18T02:14:37.871Z,100007.00
2022-12-18T02:15:45.272Z,100017.22
2022-12-18T02:16:53.828Z,100022.31
2022-12-18T02:18:00.232Z,100013.81
2022-12-18T02:19:09.872Z,100017.22
2022-12-18T02:20:15.455Z,100026.56
2022-12-18T02:21:26.732Z,100030.81
2022-12-18T02:22:38.975Z,100032.53
2022-12-18T02:23:50.103Z,100033.38
2022-12-18T02:25:02.504Z,100037.59
2022-12-18T02:26:12.557Z,100041.03
2022-12-18T02:27:14.659Z,100039.31
2022-12-18T02:28:18.846Z,100040.19
2022-12-18T02:29:24.116Z,100044.44
2022-12-18T02:30:28.329Z,100043.59
2022-12-18T02:31:33.877Z,100036.75
2022-12-18T02:32:39.692Z,100039.31
2022-12-18T02:33:42.255Z,100041.03
2022-12-18T02:34:46.671Z,100041.88
2022-12-18T02:35:52.886Z,100041.88
2022-12-18T02:36:57.300Z,100047.00
2022-12-18T02:37:59.747Z,100038.47
2022-12-18T02:39:07.914Z,100039.34
2022-12-18T02:40:12.803Z,100047.84
2022-12-18T02:41:18.805Z,100039.34
2022-12-18T02:42:21.168Z,100038.50
2022-12-18T02:43:25.101Z,100042.72
2022-12-18T02:44:27.328Z,100044.44
2022-12-18T02:45:33.194Z,100052.94
2022-12-18T02:46:37.920Z,100055.47
2022-12-18T02:47:50.918Z,100044.41
2022-12-18T02:48:54.989Z,100051.22
2022-12-18T02:50:05.852Z,100055.47
2022-12-18T02:51:15.379Z,100052.06
2022-12-18T02:52:24.347Z,100057.19
2022-12-18T02:53:29.448Z,100059.72
2022-12-18T02:54:45.412Z,100066.50
2022-12-18T02:55:57.208Z,100067.34
2022-12-18T02:57:05.382Z,100068.22
2022-12-18T02:58:15.049Z,100065.66
2022-12-18T02:59:23.087Z,100065.66
2022-12-18T03:00:32.803Z,100073.31
2022-12-18T03:01:38.331Z,100070.78
2022-12-18T03:02:44.846Z,100069.06
2022-12-18T03:03:53.133Z,100069.06
2022-12-18T03:05:01.217Z,100076.72
2022-12-18T03:06:08.714Z,100075.03
2022-12-18T03:07:13.646Z,100077.56
2022-12-18T03:08:19.740Z,100080.09
2022-12-18T03:09:29.102Z,100091.19
2022-12-18T03:10:34.643Z,100081.00
2022-12-18T03:11:59.020Z,100080.13
2022-12-18T03:13:06.011Z,100081.00
2022-12-18T03:14:08.884Z,100081.84
2022-12-18T03:15:17.875Z,100086.94
2022-12-18T03:16:24.414Z,100077.59
2022-12-18T03:17:29.415Z,100087.78
2022-12-18T03:18:35.057Z,100087.78
2022-12-18T03:19:40.105Z,100090.31
2022-12-18T03:20:44.230Z,100089.47
2022-12-18T03:21:52.185Z,100094.59
2022-12-18T03:23:15.221Z,100094.59
2022-12-18T03:24:22.085Z,100092.03
2022-12-18T03:25:26.923Z,100096.28
2022-12-18T03:26:31.884Z,100092.88
2022-12-18T03:27:38.884Z,100092.88
2022-12-18T03:28:48.294Z,100093.75
2022-12-18T03:29:52.665Z,100092.03
2022-12-18T03:31:02.646Z,100086.09
2022-12-18T03:32:10.044Z,100091.19
2022-12-18T03:33:18.723Z,100091.19
2022-12-18T03:34:24.980Z,100089.47
2022-12-18T03:35:31.743Z,100087.78
2022-12-18T03:36:33.751Z,100089.47
2022-12-18T03:37:38.405Z,100095.44
2022-12-18T03:38:40.856Z,100099.72
2022-12-18T03:39:45.356Z,100095.44
2022-12-18T03:40:54.441Z,100100.53
2022-12-18T03:42:02.400Z,100104.78
2022-12-18T03:43:21.842Z,100101.38
2022-12-18T03:44:31.222Z,100108.19
2022-12-18T03:45:37.287Z,100104.78
2022-12-18T03:46:46.191Z,100105.63
2022-12-18T03:47:57.348Z,100103.09
2022-12-18T03:49:05.401Z,100111.59
2022-12-18T03:50:13.174Z,100109.91
2022-12-18T03:51:21.411Z,100109.03
2022-12-18T03:52:27.337Z,100109.03
2022-12-18T03:53:36.075Z,100112.44
2022-12-18T03:54:40.128Z,100107.28
2022-12-18T03:55:50.137Z,100114.94
2022-12-18T03:56:58.119Z,100117.50
2022-12-18T03:58:02.041Z,100116.66
2022-12-18T03:59:16.859Z,100112.44
2022-12-18T04:00:20.700Z,100120.06
2022-12-18T04:01:35.290Z,100123.50
2022-12-18T04:02:39.091Z,100120.97
2022-12-18T04:03:44.929Z,100124.34
2022-12-18T04:04:47.998Z,100129.44
2022-12-18T04:05:53.070Z,100128.59
2022-12-18T04:06:57.180Z,100130.31
2022-12-18T04:08:00.833Z,100135.41
2022-12-18T04:09:03.788Z,100127.72
2022-12-18T04:10:12.331Z,100139.66
2022-12-18T04:11:14.338Z,100133.69
2022-12-18T04:12:17.299Z,100137.09
2022-12-18T04:13:23.863Z,100132.84
2022-12-18T04:14:26.753Z,100131.97
2022-12-18T04:15:34.566Z,100138.78
2022-12-18T04:16:38.777Z,100131.13
2022-12-18T04:17:48.760Z,100138.78
2022-12-18T04:18:54.939Z,100136.22
2022-12-18T04:19:59.215Z,100137.94
2022-12-18T04:21:02.166Z,100132.81
2022-12-18T04:22:04.702Z,100137.94
2022-12-18T04:23:14.320Z,100149.00
2022-12-18T04:24:17.300Z,100144.78
2022-12-18T04:25:28.233Z,100143.91
2022-12-18T04:26:41.613Z,100146.47
2022-12-18T04:28:06.238Z,100145.59
2022-12-18T04:29:10.256Z,100148.16
2022-12-18T04:30:12.992Z,100146.47
2022-12-18T04:31:17.238Z,100145.63
2022-12-18T04:32:19.248Z,100153.25
2022-12-18T04:33:23.786Z,100154.97
2022-12-18T04:34:26.085Z,100160.94
2022-12-18T04:35:30.811Z,100158.38
2022-12-18T04:36:32.685Z,100160.06
2022-12-18T04:37:35.450Z,100162.63
2022-12-18T04:38:38.324Z,100159.19
2022-12-18T04:39:44.094Z,100155.81
2022-12-18T04:40:55.624Z,100162.63
2022-12-18T04:42:01.862Z,100169.41
2022-12-18T04:43:04.848Z,100167.72
2022-12-18T04:44:06.817Z,100171.97
2022-12-18T04:45:10.759Z,100178.78
2022-12-18T04:46:12.665Z,100183.88
2022-12-18T04:47:16.860Z,100177.06
2022-12-18T04:48:18.816Z,100176.22
2022-12-18T04:49:21.821Z,100182.19
2022-12-18T04:50:23.636Z,100175.38
2022-12-18T04:51:26.977Z,100182.22
2022-12-18T04:52:28.941Z,100185.63
2022-12-18T04:53:32.685Z,100183.09
2022-12-18T04:54:34.730Z,100183.09
2022-12-18T04:55:37.536Z,100184.78
2022-12-18T04:56:39.397Z,100189.91
2022-12-18T04:57:42.260Z,100188.22
2022-12-18T04:58:45.174Z,100191.63
2022-12-18T04:59:47.968Z,100192.47
2022-12-18T05:00:49.841Z,100191.63
2022-12-18T05:01:52.740Z,100195.88
2022-12-18T05:02:57.455Z,100200.97
2022-12-18T05:04:00.454Z,100194.19
2022-12-18T05:05:02.318Z,100199.28
2022-12-18T05:06:05.594Z,100203.53
2022-12-18T05:07:07.881Z,100202.69
2022-12-18T05:08:11.104Z,100200.13
2022-12-18T05:09:13.070Z,100204.41
2022-12-18T05:10:16.084Z,100206.94
2022-12-18T05:11:18.171Z,100197.56
2022-12-18T05:12:20.919Z,100192.47
2022-12-18T05:13:23.081Z,100199.25
2022-12-18T05:14:25.890Z,100195.88
2022-12-18T05:15:29.059Z,100201.81
2022-12-18T05:16:32.610Z,100209.50
2022-12-18T05:17:34.455Z,100205.22
2022-12-18T05:18:39.133Z,100206.94
2022-12-18T05:19:41.026Z,100204.38
2022-12-18T05:20:43.776Z,100203.53
2022-12-18T05:21:45.557Z,100202.69
2022-12-18T05:22:48.711Z,100203.50
2022-12-18T05:23:51.722Z,100209.47
2022-12-18T05:24:53.592Z,100209.50
2022-12-18T05:25:58.226Z,100209.50
2022-12-18T05:27:00.146Z,100206.94
2022-12-18T05:28:02.997Z,100216.31
2022-12-18T05:29:23.388Z,100218.00
2022-12-18T05:30:26.259Z,100216.31
2022-12-18T05:31:28.132Z,100210.34
2022-12-18T05:32:30.964Z,100218.00
2022-12-18T05:33:34.352Z,100220.56
2022-12-18T05:34:38.466Z,100222.25
2022-12-18T05:35:40.239Z,100227.38
2022-12-18T05:36:43.051Z,100224.84
2022-12-18T05:37:46.429Z,100225.66
2022-12-18T05:38:49.194Z,100222.28
2022-12-18T05:39:50.994Z,100226.53
2022-12-18T05:40:54.206Z,100221.41
2022-12-18T05:41:56.000Z,100224.81
2022-12-18T05:42:59.023Z,100217.16
2022-12-18T05:44:00.832Z,100227.34
2022-12-18T05:45:04.194Z,100226.47
2022-12-18T05:46:07.468Z,100234.16
2022-12-18T05:47:10.375Z,100222.25
2022-12-18T05:48:15.110Z,100229.88
2022-12-18T05:49:18.278Z,100229.88
2022-12-18T05:50:21.396Z,100233.28
2022-12-18T05:51:24.464Z,100234.97
2022-12-18T05:52:26.474Z,100230.72
2022-12-18T05:53:29.229Z,100233.28
2022-12-18T05:54:31.963Z,100234.16
2022-12-18T05:55:35.215Z,100239.25
2022-12-18T05:56:36.981Z,100240.94
2022-12-18T05:57:40.140Z,100239.25
2022-12-18T05:58:42.264Z,100235.84
2022-12-18T05:59:45.205Z,100241.78
2022-12-18T06:00:47.392Z,100237.53
2022-12-18T06:01:50.287Z,100242.66
2022-12-18T06:02:52.405Z,100250.31
2022-12-18T06:03:55.864Z,100243.50
2022-12-18T06:04:58.066Z,100243.50
2022-12-18T06:06:02.822Z,100245.16
2022-12-18T06:07:04.644Z,100240.91
2022-12-18T06:08:07.661Z,100249.44
2022-12-18T06:09:10.490Z,100241.78
2022-12-18T06:10:13.562Z,100251.13
2022-12-18T06:11:18.313Z,100248.56
2022-12-18T06:12:21.066Z,100246.88
2022-12-18T06:13:22.868Z,100252.00
2022-12-18T06:14:25.718Z,100247.72
2022-12-18T06:15:27.528Z,100257.09
2022-12-18T06:16:30.421Z,100254.53
2022-12-18T06:17:34.017Z,100250.28
2022-12-18T06:18:39.518Z,100255.41
2022-12-18T06:19:42.521Z,100259.66
2022-12-18T06:20:44.324Z,100247.75
2022-12-18T06:21:48.497Z,100252.88
2022-12-18T06:22:50.519Z,100249.50
2022-12-18T06:23:53.621Z,100256.31
2022-12-18T06:24:55.405Z,100259.69
2022-12-18T06:25:58.662Z,100255.44
2022-12-18T06:27:01.589Z,100257.13
2022-12-18T06:28:03.530Z,100258.84
2022-12-18T06:29:06.916Z,100266.50
2022-12-18T06:30:10.668Z,100263.97
2022-12-18T06:31:14.028Z,100270.78
2022-12-18T06:32:15.929Z,100275.03
2022-12-18T06:33:19.119Z,100267.41
2022-12-18T06:34:22.277Z,100275.03
2022-12-18T06:35:24.546Z,100275.91
2022-12-18T06:36:33.092Z,100277.59
2022-12-18T06:37:36.225Z,100273.34
2022-12-18T06:38:41.059Z,100280.16
2022-12-18T06:39:43.325Z,100278.44
2022-12-18T06:40:46.181Z,100282.72
2022-12-18T06:41:47.987Z,100287.84
2022-12-18T06:42:50.958Z,100291.22
2022-12-18T06:43:56.753Z,100287.81
2022-12-18T06:45:00.227Z,100294.66
2022-12-18T06:46:03.414Z,100296.34
2022-12-18T06:47:06.404Z,100291.25
2022-12-18T06:48:08.225Z,100301.47
2022-12-18T06:49:11.139Z,100305.72
2022-12-18T06:50:13.889Z,100305.72
2022-12-18T06:51:18.849Z,100313.34
2022-12-18T06:52:21.978Z,100309.97
2022-12-18T06:53:25.159Z,100292.94
2022-12-18T06:54:27.919Z,100309.94
2022-12-18T06:55:30.157Z,100307.41
2022-12-18T06:56:32.971Z,100306.56
2022-12-18T06:57:34.845Z,100304.88
2022-12-18T06:58:37.700Z,100312.53
2022-12-18T06:59:40.493Z,100307.41
2022-12-18T07:00:42.380Z,100309.97
2022-12-18T07:01:45.932Z,100323.56
2022-12-18T07:02:47.890Z,100320.16
2022-12-18T07:03:53.960Z,100326.16
2022-12-18T07:04:55.954Z,100322.72
2022-12-18T07:05:58.758Z,100321.88
2022-12-18T07:07:00.672Z,100329.56
2022-12-18T07:08:03.505Z,100328.72
2022-12-18T07:09:06.633Z,100333.81
2022-12-18T07:10:10.046Z,100332.09
2022-12-18T07:11:12.498Z,100331.25
2022-12-18T07:12:15.323Z,100330.41
2022-12-18T07:13:17.581Z,100333.81
2022-12-18T07:14:20.513Z,100333.81
2022-12-18T07:15:22.447Z,100329.53
2022-12-18T07:16:26.133Z,100341.44
2022-12-18T07:17:28.261Z,100332.09
2022-12-18T07:18:31.071Z,100334.63
2022-12-18T07:19:32.937Z,100338.03
2022-12-18T07:20:35.736Z,100338.06
2022-12-18T07:21:37.529Z,100344.88
2022-12-18T07:22:40.933Z,100345.72
2022-12-18T07:23:43.522Z,100345.72
2022-12-18T07:24:50.025Z,100344.88
2022-12-18T07:25:51.853Z,100351.69
2022-12-18T07:26:54.924Z,100350.81
2022-12-18T07:27:56.761Z,100352.50
2022-12-18T07:28:59.867Z,100359.31
2022-12-18T07:30:02.927Z,100350.81
2022-12-18T07:31:05.801Z,100361.84
2022-12-18T07:32:10.062Z,100357.63
2022-12-18T07:33:12.524Z,100361.00
2022-12-18T07:34:16.070Z,100366.13
2022-12-18T07:35:23.371Z,100374.63
2022-12-18T07:36:27.989Z,100372.06
2022-12-18T07:37:29.818Z,100376.31
2022-12-18T07:38:33.106Z,100372.94
2022-12-18T07:39:35.173Z,100379.72
2022-12-18T07:40:39.406Z,100377.19
2022-12-18T07:41:46.730Z,100380.56
2022-12-18T07:42:52.398Z,100384.00
2022-12-18T07:43:54.331Z,100377.19
2022-12-18T07:44:57.333Z,100382.31
2022-12-18T07:46:00.653Z,100378.88
2022-12-18T07:47:06.657Z,100384.84
2022-12-18T07:48:12.311Z,100377.19
2022-12-18T07:49:15.471Z,100384.81
2022-12-18T07:50:17.462Z,100375.47
2022-12-18T07:51:20.928Z,100383.09
2022-12-18T07:52:26.236Z,100382.25
2022-12-18T07:53:29.725Z,100385.69
2022-12-18T07:54:31.576Z,100380.56
2022-12-18T07:55:54.785Z,100376.31
2022-12-18T07:56:58.326Z,100375.44
2022-12-18T07:58:03.509Z,100380.53
2022-12-18T07:59:05.450Z,100379.69
2022-12-18T08:00:09.349Z,100375.44
2022-12-18T08:01:14.525Z,100375.44
2022-12-18T08:02:17.689Z,100379.69
2022-12-18T08:03:21.118Z,100380.56
2022-12-18T08:04:25.317Z,100379.72
2022-12-18T08:05:27.469Z,100376.31
2022-12-18T08:06:30.347Z,100380.59
2022-12-18T08:07:32.266Z,100379.75
2022-12-18T08:08:35.767Z,100383.16
2022-12-18T08:09:38.620Z,100382.28
2022-12-18T08:10:40.496Z,100384.00
2022-12-18T08:11:43.507Z,100382.31
2022-12-18T08:12:46.870Z,100385.72
2022-12-18T08:13:49.806Z,100379.72
2022-12-18T08:14:53.289Z,100390.81
2022-12-18T08:15:58.985Z,100389.09
2022-12-18T08:17:01.858Z,100386.53
2022-12-18T08:18:04.035Z,100387.41
2022-12-18T08:19:07.316Z,100386.53
2022-12-18T08:20:10.369Z,100390.78
2022-12-18T08:21:15.994Z,100387.38
2022-12-18T08:22:17.864Z,100387.34
2022-12-18T08:23:20.915Z,100384.78
2022-12-18T08:24:24.101Z,100389.91
2022-12-18T08:25:26.967Z,100385.63
2022-12-18T08:26:31.974Z,100387.31
2022-12-18T08:27:33.931Z,100395.84
2022-12-18T08:28:43.511Z,100382.19
2022-12-18T08:29:46.325Z,100390.72
2022-12-18T08:30:52.953Z,100385.59
2022-12-18T08:31:56.158Z,100383.84
2022-12-18T08:32:58.032Z,100386.44
2022-12-18T08:34:00.860Z,100381.31
2022-12-18T08:35:02.680Z,100383.00
2022-12-18T08:36:06.819Z,100388.13
2022-12-18T08:37:08.681Z,100384.72
2022-12-18T08:38:11.421Z,100389.81
2022-12-18T08:39:13.372Z,100377.84
2022-12-18T08:40:16.389Z,100388.03
2022-12-18T08:41:21.092Z,100384.59
2022-12-18T08:42:41.225Z,100389.69
2022-12-18T08:44:03.303Z,100397.34
2022-12-18T08:45:05.873Z,100397.31
2022-12-18T08:46:08.788Z,100398.16
2022-12-18T08:47:11.705Z,100402.38
2022-12-18T08:48:16.660Z,100410.06
2022-12-18T08:49:23.422Z,100408.38
2022-12-18T08:50:25.334Z,100406.66
2022-12-18T08:51:28.175Z,100409.22
2022-12-18T08:52:33.484Z,100411.75
2022-12-18T08:53:35.936Z,100415.19
2022-12-18T08:54:38.973Z,100418.59
2022-12-18T08:55:48.563Z,100412.59
2022-12-18T08:56:53.294Z,100414.25
2022-12-18T08:57:55.099Z,100413.34
2022-12-18T08:58:59.742Z,100416.72
2022-12-18T09:00:01.881Z,100426.09
2022-12-18T09:01:05.696Z,100414.94
2022-12-18T09:02:10.150Z,100420.03
2022-12-18T09:03:13.358Z,100415.78
2022-12-18T09:04:16.285Z,100422.66
2022-12-18T09:05:19.051Z,100427.78
2022-12-18T09:06:23.227Z,100428.66
2022-12-18T09:07:25.458Z,100428.72
2022-12-18T09:08:28.255Z,100439.78
2022-12-18T09:09:31.134Z,100434.72
2022-12-18T09:10:33.062Z,100435.56
2022-12-18T09:11:35.989Z,100428.75
2022-12-18T09:12:38.208Z,100429.63
2022-12-18T09:13:41.525Z,100424.50
2022-12-18T09:14:45.070Z,100431.34
2022-12-18T09:15:49.242Z,100436.44
2022-12-18T09:16:52.052Z,100433.84
2022-12-18T09:17:53.948Z,100435.47
2022-12-18T09:19:00.404Z,100431.94
2022-12-18T09:20:03.249Z,100437.78
2022-12-18T09:21:12.573Z,100435.94
2022-12-18T09:22:15.716Z,100440.06
2022-12-18T09:23:17.537Z,100445.03
2022-12-18T09:24:20.330Z,100437.25
2022-12-18T09:25:22.570Z,100443.91
2022-12-18T09:26:27.627Z,100444.59
2022-12-18T09:27:30.930Z,100448.78
2022-12-18T09:28:32.828Z,100446.16
2022-12-18T09:29:35.648Z,100448.66
2022-12-18T09:30:40.236Z,100436.63
2022-12-18T09:31:43.097Z,100434.06
2022-12-18T09:32:44.950Z,100436.59
2022-12-18T09:33:47.894Z,100438.22
2022-12-18T09:34:50.492Z,100441.47
2022-12-18T09:35:53.252Z,100443.00
2022-12-18T09:36:55.057Z,100438.50
2022-12-18T09:37:57.929Z,100437.44
2022-12-18T09:39:04.984Z,100434.69
2022-12-18T09:40:15.288Z,100443.00
2022-12-18T09:41:34.797Z,100432.59
2022-12-18T09:42:36.599Z,100435.91
2022-12-18T09:43:45.215Z,100436.66
2022-12-18T09:44:50.741Z,100444.28
2022-12-18T09:45:58.151Z,100439.06
2022-12-18T09:47:09.207Z,100441.59
2022-12-18T09:48:13.040Z,100446.72
2022-12-18T09:49:18.588Z,100442.44
2022-12-18T09:50:28.058Z,100449.34
2022-12-18T09:51:34.849Z,100449.47
2022-12-18T09:52:39.969Z,100457.28
2022-12-18T09:53:42.465Z,100454.81
2022-12-18T09:54:48.534Z,100457.47
2022-12-18T09:55:51.719Z,100449.00
2022-12-18T09:56:54.594Z,100453.38
2022-12-18T09:57:59.758Z,100452.59
2022-12-18T09:59:02.610Z,100444.09
2022-12-18T10:00:11.522Z,100450.97
2022-12-18T10:01:17.711Z,100447.50
2022-12-18T10:02:23.319Z,100451.75
2022-12-18T10:03:25.253Z,100447.44
2022-12-18T10:04:30.900Z,100450.88
2022-12-18T10:05:39.520Z,100450.78
2022-12-18T10:06:46.157Z,100452.53
2022-12-18T10:07:57.489Z,100451.59
2022-12-18T10:09:03.065Z,100451.53
2022-12-18T10:10:12.357Z,100454.81
2022-12-18T10:11:33.099Z,100454.84
2022-12-18T10:12:42.158Z,100443.00
2022-12-18T10:13:48.784Z,100450.97
2022-12-18T10:15:13.986Z,100438.25
2022-12-18T10:16:24.741Z,100439.09
2022-12-18T10:17:51.516Z,100444.19
2022-12-18T10:19:12.612Z,100441.63
2022-12-18T10:20:20.222Z,100441.56
2022-12-18T10:21:36.503Z,100444.81
2022-12-18T10:23:48.021Z,100437.69
2022-12-18T10:25:39.548Z,100443.50
2022-12-18T10:26:43.395Z,100437.44
2022-12-18T10:27:51.980Z,100439.13
2022-12-18T10:28:58.554Z,100443.31
2022-12-18T10:30:16.770Z,100441.50
2022-12-18T10:31:26.343Z,100438.13
2022-12-18T10:32:37.825Z,100429.72
2022-12-18T10:33:43.689Z,100430.69
2022-12-18T10:34:46.768Z,100430.69
2022-12-18T10:36:01.526Z,100435.81
2022-12-18T10:37:17.901Z,100435.00
2022-12-18T10:38:46.725Z,100428.91
2022-12-18T10:40:08.039Z,100430.50
2022-12-18T10:41:29.458Z,100429.47
2022-12-18T10:42:32.858Z,100431.25
2022-12-18T10:43:40.404Z,100425.31
2022-12-18T10:44:42.636Z,100427.00
2022-12-18T10:46:02.367Z,100420.94
2022-12-18T10:47:20.537Z,100417.41
2022-12-18T10:48:30.561Z,100419.84
2022-12-18T10:49:34.514Z,100416.31
2022-12-18T10:51:10.298Z,100424.84
2022-12-18T10:52:22.721Z,100423.22
2022-12-18T10:53:34.221Z,100416.47
2022-12-18T10:54:37.485Z,100412.22
2022-12-18T10:55:41.190Z,100414.75
2022-12-18T10:56:45.265Z,100416.41
2022-12-18T10:57:56.984Z,100414.66
2022-12-18T10:59:01.547Z,100407.06
2022-12-18T11:00:32.460Z,100407.22
2022-12-18T11:01:49.812Z,100412.59
2022-12-18T11:02:53.621Z,100413.53
2022-12-18T11:04:04.881Z,100415.19
2022-12-18T11:05:49.856Z,100408.16
2022-12-18T11:07:04.920Z,100404.56
2022-12-18T11:08:07.008Z,100402.84
2022-12-18T11:09:30.248Z,100406.44
2022-12-18T11:10:35.592Z,100403.06
2022-12-18T11:11:42.292Z,100408.97
2022-12-18T11:12:53.510Z,100402.78
2022-12-18T11:14:03.436Z,100395.69
2022-12-18T11:15:32.794Z,100395.44
2022-12-18T11:18:30.006Z,100386.63
2022-12-18T11:19:35.163Z,100390.94
2022-12-18T11:20:41.548Z,100392.75
2022-12-18T11:21:48.959Z,100396.19
2022-12-18T11:23:03.832Z,100389.31
2022-12-18T11:24:20.708Z,100389.16
2022-12-18T11:25:36.445Z,100386.34
2022-12-18T11:26:41.262Z,100393.06
2022-12-18T11:27:48.825Z,100392.88
2022-12-18T11:28:54.773Z,100390.16
2022-12-18T11:30:11.229Z,100385.97
2022-12-18T11:31:20.640Z,100391.22
2022-12-18T11:32:43.134Z,100383.72
2022-12-18T11:34:19.707Z,100388.00
2022-12-18T11:35:52.314Z,100392.31
2022-12-18T11:36:59.600Z,100383.13
2022-12-18T11:38:25.046Z,100389.19
2022-12-18T11:39:52.933Z,100396.66
2022-12-18T11:41:03.739Z,100397.31
2022-12-18T11:42:24.565Z,100392.00
2022-12-18T11:43:51.983Z,100401.44
2022-12-18T11:46:43.292Z,100405.94
2022-12-18T11:47:50.355Z,100406.78
2022-12-18T11:48:56.677Z,100404.13
2022-12-18T11:50:02.420Z,100406.78
2022-12-18T11:51:08.061Z,100404.28
2022-12-18T11:52:34.109Z,100401.81
2022-12-18T11:53:41.097Z,100400.34
2022-12-18T11:54:46.097Z,100406.50
2022-12-18T11:55:59.237Z,100400.63
2022-12-18T11:57:11.111Z,100404.09
2022-12-18T11:58:24.221Z,100404.09
2022-12-18T11:59:35.680Z,100406.66
2022-12-18T12:01:01.802Z,100400.59
2022-12-18T12:02:47.539Z,100406.50
2022-12-18T12:04:23.140Z,100409.91
2022-12-18T12:05:53.450Z,100406.41
2022-12-18T12:07:41.738Z,100407.25
2022-12-18T12:09:27.269Z,100411.72
2022-12-18T12:10:56.801Z,100410.28
2022-12-18T12:12:30.269Z,100407.22
2022-12-18T12:14:02.323Z,100421.28
2022-12-18T12:15:39.722Z,100419.03
2022-12-18T12:16:57.646Z,100421.06
2022-12-18T12:18:16.232Z,100421.22
2022-12-18T12:19:40.436Z,100410.22
2022-12-18T12:21:14.145Z,100417.09
2022-12-18T12:22:24.243Z,100416.28
2022-12-18T12:23:48.937Z,100429.13
2022-12-18T12:25:32.894Z,100417.16
2022-12-18T12:26:42.907Z,100422.34
2022-12-18T12:28:23.511Z,100418.94
2022-12-18T12:29:38.326Z,100425.00
2022-12-18T12:30:53.958Z,100427.59
2022-12-18T12:32:21.436Z,100423.31
2022-12-18T12:34:02.790Z,100420.78
2022-12-18T12:35:35.229Z,100424.28
2022-12-18T12:37:26.255Z,100420.09
2022-12-18T12:38:33.524Z,100427.06
2022-12-18T12:39:48.025Z,100428.81
2022-12-18T12:41:02.883Z,100434.03
2022-12-18T12:42:30.762Z,100437.53
2022-12-18T12:43:43.353Z,100439.44
2022-12-18T12:44:56.468Z,100432.72
2022-12-18T12:46:10.489Z,100437.09
2022-12-18T12:47:16.035Z,100434.56
2022-12-18T12:48:35.495Z,100437.19
2022-12-18T12:49:50.031Z,100429.56
2022-12-18T12:51:04.301Z,100434.78
2022-12-18T12:52:09.849Z,100433.16
2022-12-18T12:53:42.614Z,100434.94